sensor_id;sensor_type;location;lat;lon;timestamp;temperature;humidity
74364;DHT22;62797;49.740;10.154;2022-11-12T00:00:32;5.50;74.40
74364;DHT22;62797;49.740;10.154;2022-11-12T00:02:57;5.50;73.60
74364;DHT22;62797;49.740;10.154;2022-11-12T00:05:23;5.50;73.40
74364;DHT22;62797;49.740;10.154;2022-11-12T00:07:49;5.50;73.10
74364;DHT22;62797;49.740;10.154;2022-11-12T00:10:15;5.50;73.40
74364;DHT22;62797;49.740;10.154;2022-11-12T00:12:41;5.50;72.90
74364;DHT22;62797;49.740;10.154;2022-11-12T00:15:07;5.50;74.20
74364;DHT22;62797;49.740;10.154;2022-11-12T00:17:33;5.40;73.90
74364;DHT22;62797;49.740;10.154;2022-11-12T00:19:58;5.40;73.70
74364;DHT22;62797;49.740;10.154;2022-11-12T00:22:24;5.40;74.50
74364;DHT22;62797;49.740;10.154;2022-11-12T00:24:50;5.30;73.80
74364;DHT22;62797;49.740;10.154;2022-11-12T00:27:15;5.20;73.70
74364;DHT22;62797;49.740;10.154;2022-11-12T00:29:41;5.20;74.00
74364;DHT22;62797;49.740;10.154;2022-11-12T00:32:07;5.10;73.70
74364;DHT22;62797;49.740;10.154;2022-11-12T00:34:33;5.10;74.00
74364;DHT22;62797;49.740;10.154;2022-11-12T00:36:59;5.20;74.00
74364;DHT22;62797;49.740;10.154;2022-11-12T00:39:25;5.20;74.50
74364;DHT22;62797;49.740;10.154;2022-11-12T00:41:51;5.20;75.30
74364;DHT22;62797;49.740;10.154;2022-11-12T00:44:17;5.20;75.50
74364;DHT22;62797;49.740;10.154;2022-11-12T00:46:43;5.20;74.80
74364;DHT22;62797;49.740;10.154;2022-11-12T00:49:08;5.20;74.30
74364;DHT22;62797;49.740;10.154;2022-11-12T00:51:34;5.20;74.30
74364;DHT22;62797;49.740;10.154;2022-11-12T00:54:00;5.20;74.70
74364;DHT22;62797;49.740;10.154;2022-11-12T00:56:25;5.20;76.00
74364;DHT22;62797;49.740;10.154;2022-11-12T00:58:51;5.20;75.80
74364;DHT22;62797;49.740;10.154;2022-11-12T01:01:16;5.10;75.40
74364;DHT22;62797;49.740;10.154;2022-11-12T01:03:42;5.20;74.40
74364;DHT22;62797;49.740;10.154;2022-11-12T01:06:13;5.20;74.40
74364;DHT22;62797;49.740;10.154;2022-11-12T01:08:40;5.10;74.20
74364;DHT22;62797;49.740;10.154;2022-11-12T01:11:10;5.10;74.80
74364;DHT22;62797;49.740;10.154;2022-11-12T01:13:38;5.10;74.30
74364;DHT22;62797;49.740;10.154;2022-11-12T01:16:10;5.00;74.70
74364;DHT22;62797;49.740;10.154;2022-11-12T01:18:36;5.00;74.70
74364;DHT22;62797;49.740;10.154;2022-11-12T01:21:03;4.90;74.10
74364;DHT22;62797;49.740;10.154;2022-11-12T01:23:34;4.90;74.40
74364;DHT22;62797;49.740;10.154;2022-11-12T01:26:11;4.80;74.60
74364;DHT22;62797;49.740;10.154;2022-11-12T01:28:38;4.80;75.50
74364;DHT22;62797;49.740;10.154;2022-11-12T01:33:40;4.80;74.50
74364;DHT22;62797;49.740;10.154;2022-11-12T01:36:07;4.70;75.20
74364;DHT22;62797;49.740;10.154;2022-11-12T01:38:34;4.70;74.90
74364;DHT22;62797;49.740;10.154;2022-11-12T01:41:00;4.70;74.70
74364;DHT22;62797;49.740;10.154;2022-11-12T01:43:26;4.70;74.50
74364;DHT22;62797;49.740;10.154;2022-11-12T01:45:52;4.60;74.70
74364;DHT22;62797;49.740;10.154;2022-11-12T01:48:39;4.50;75.00
74364;DHT22;62797;49.740;10.154;2022-11-12T01:51:06;4.50;75.00
74364;DHT22;62797;49.740;10.154;2022-11-12T01:53:39;4.40;74.90
74364;DHT22;62797;49.740;10.154;2022-11-12T01:56:06;4.40;75.40
74364;DHT22;62797;49.740;10.154;2022-11-12T01:58:32;4.40;75.30
74364;DHT22;62797;49.740;10.154;2022-11-12T02:00:58;4.40;75.50
74364;DHT22;62797;49.740;10.154;2022-11-12T02:03:25;4.40;75.00
74364;DHT22;62797;49.740;10.154;2022-11-12T02:05:55;4.30;75.60
74364;DHT22;62797;49.740;10.154;2022-11-12T02:08:23;4.30;75.80
74364;DHT22;62797;49.740;10.154;2022-11-12T02:10:49;4.30;76.00
74364;DHT22;62797;49.740;10.154;2022-11-12T02:13:16;4.30;75.80
74364;DHT22;62797;49.740;10.154;2022-11-12T02:16:02;4.30;75.90
74364;DHT22;62797;49.740;10.154;2022-11-12T02:18:28;4.30;75.90
74364;DHT22;62797;49.740;10.154;2022-11-12T02:20:56;4.30;74.90
74364;DHT22;62797;49.740;10.154;2022-11-12T02:23:22;4.20;75.70
74364;DHT22;62797;49.740;10.154;2022-11-12T02:25:48;4.20;76.00
74364;DHT22;62797;49.740;10.154;2022-11-12T02:28:14;4.20;76.20
74364;DHT22;62797;49.740;10.154;2022-11-12T02:30:44;4.30;76.10
74364;DHT22;62797;49.740;10.154;2022-11-12T02:33:10;4.30;76.20
74364;DHT22;62797;49.740;10.154;2022-11-12T02:35:36;4.30;75.60
74364;DHT22;62797;49.740;10.154;2022-11-12T02:38:03;4.30;75.70
74364;DHT22;62797;49.740;10.154;2022-11-12T02:40:29;4.30;75.90
74364;DHT22;62797;49.740;10.154;2022-11-12T02:42:55;4.30;75.50
74364;DHT22;62797;49.740;10.154;2022-11-12T02:45:21;4.30;75.60
74364;DHT22;62797;49.740;10.154;2022-11-12T02:47:46;4.30;75.50
74364;DHT22;62797;49.740;10.154;2022-11-12T02:50:12;4.30;75.40
74364;DHT22;62797;49.740;10.154;2022-11-12T02:52:38;4.30;75.70
74364;DHT22;62797;49.740;10.154;2022-11-12T02:55:07;4.30;76.00
74364;DHT22;62797;49.740;10.154;2022-11-12T02:57:34;4.30;76.30
74364;DHT22;62797;49.740;10.154;2022-11-12T02:59:59;4.30;76.70
74364;DHT22;62797;49.740;10.154;2022-11-12T03:02:25;4.30;76.70
74364;DHT22;62797;49.740;10.154;2022-11-12T03:04:50;4.30;76.10
74364;DHT22;62797;49.740;10.154;2022-11-12T03:07:16;4.30;76.50
74364;DHT22;62797;49.740;10.154;2022-11-12T03:09:42;4.30;76.20
74364;DHT22;62797;49.740;10.154;2022-11-12T03:12:07;4.30;76.20
74364;DHT22;62797;49.740;10.154;2022-11-12T03:14:33;4.30;76.10
74364;DHT22;62797;49.740;10.154;2022-11-12T03:16:58;4.40;76.50
74364;DHT22;62797;49.740;10.154;2022-11-12T03:19:24;4.30;76.50
74364;DHT22;62797;49.740;10.154;2022-11-12T03:21:49;4.40;76.40
74364;DHT22;62797;49.740;10.154;2022-11-12T03:24:15;4.40;76.30
74364;DHT22;62797;49.740;10.154;2022-11-12T03:26:40;4.40;76.10
74364;DHT22;62797;49.740;10.154;2022-11-12T03:29:06;4.30;75.90
74364;DHT22;62797;49.740;10.154;2022-11-12T03:31:31;4.30;76.00
74364;DHT22;62797;49.740;10.154;2022-11-12T03:33:57;4.30;75.90
74364;DHT22;62797;49.740;10.154;2022-11-12T03:36:22;4.20;76.30
74364;DHT22;62797;49.740;10.154;2022-11-12T03:38:48;4.20;76.20
74364;DHT22;62797;49.740;10.154;2022-11-12T03:41:13;4.20;76.70
74364;DHT22;62797;49.740;10.154;2022-11-12T03:43:39;4.20;76.80
74364;DHT22;62797;49.740;10.154;2022-11-12T03:46:05;4.20;76.90
74364;DHT22;62797;49.740;10.154;2022-11-12T03:48:30;4.30;76.70
74364;DHT22;62797;49.740;10.154;2022-11-12T03:50:59;4.20;76.70
74364;DHT22;62797;49.740;10.154;2022-11-12T03:53:25;4.10;76.20
74364;DHT22;62797;49.740;10.154;2022-11-12T03:55:51;4.00;76.00
74364;DHT22;62797;49.740;10.154;2022-11-12T03:58:17;4.00;77.30
74364;DHT22;62797;49.740;10.154;2022-11-12T04:00:42;4.10;76.90
74364;DHT22;62797;49.740;10.154;2022-11-12T04:03:08;4.10;77.40
74364;DHT22;62797;49.740;10.154;2022-11-12T04:05:33;4.10;76.50
74364;DHT22;62797;49.740;10.154;2022-11-12T04:08:20;4.10;76.50
74364;DHT22;62797;49.740;10.154;2022-11-12T04:11:12;4.20;76.20
74364;DHT22;62797;49.740;10.154;2022-11-12T04:13:42;4.20;75.90
74364;DHT22;62797;49.740;10.154;2022-11-12T04:16:15;4.20;75.80
74364;DHT22;62797;49.740;10.154;2022-11-12T04:18:59;4.10;75.60
74364;DHT22;62797;49.740;10.154;2022-11-12T04:21:46;4.10;75.30
74364;DHT22;62797;49.740;10.154;2022-11-12T04:27:05;4.10;75.00
74364;DHT22;62797;49.740;10.154;2022-11-12T04:29:31;4.10;75.60
74364;DHT22;62797;49.740;10.154;2022-11-12T04:32:16;4.10;76.10
74364;DHT22;62797;49.740;10.154;2022-11-12T04:34:41;4.10;76.40
74364;DHT22;62797;49.740;10.154;2022-11-12T04:37:07;4.20;77.00
74364;DHT22;62797;49.740;10.154;2022-11-12T04:39:33;4.20;77.10
74364;DHT22;62797;49.740;10.154;2022-11-12T04:41:59;4.30;76.40
74364;DHT22;62797;49.740;10.154;2022-11-12T04:44:44;4.30;76.00
74364;DHT22;62797;49.740;10.154;2022-11-12T04:47:38;4.40;75.30
74364;DHT22;62797;49.740;10.154;2022-11-12T04:50:07;4.40;75.40
74364;DHT22;62797;49.740;10.154;2022-11-12T04:52:35;4.40;75.10
74364;DHT22;62797;49.740;10.154;2022-11-12T04:55:01;4.40;75.10
74364;DHT22;62797;49.740;10.154;2022-11-12T04:57:26;4.40;74.50
74364;DHT22;62797;49.740;10.154;2022-11-12T04:59:52;4.40;74.20
74364;DHT22;62797;49.740;10.154;2022-11-12T05:02:18;4.30;74.30
74364;DHT22;62797;49.740;10.154;2022-11-12T05:04:43;4.20;74.10
74364;DHT22;62797;49.740;10.154;2022-11-12T05:07:09;4.20;74.70
74364;DHT22;62797;49.740;10.154;2022-11-12T05:09:35;4.20;75.20
74364;DHT22;62797;49.740;10.154;2022-11-12T05:12:02;4.20;74.50
74364;DHT22;62797;49.740;10.154;2022-11-12T05:14:27;4.20;74.90
74364;DHT22;62797;49.740;10.154;2022-11-12T05:16:53;4.20;75.30
74364;DHT22;62797;49.740;10.154;2022-11-12T05:19:18;4.20;74.60
74364;DHT22;62797;49.740;10.154;2022-11-12T05:21:45;4.20;74.00
74364;DHT22;62797;49.740;10.154;2022-11-12T05:24:30;4.10;74.40
74364;DHT22;62797;49.740;10.154;2022-11-12T05:26:55;4.10;74.30
74364;DHT22;62797;49.740;10.154;2022-11-12T05:29:21;4.00;73.90
74364;DHT22;62797;49.740;10.154;2022-11-12T05:31:46;4.00;74.80
74364;DHT22;62797;49.740;10.154;2022-11-12T05:34:12;3.90;75.00
74364;DHT22;62797;49.740;10.154;2022-11-12T05:36:37;4.00;75.00
74364;DHT22;62797;49.740;10.154;2022-11-12T05:39:03;3.90;75.10
74364;DHT22;62797;49.740;10.154;2022-11-12T05:41:29;3.90;75.50
74364;DHT22;62797;49.740;10.154;2022-11-12T05:43:55;4.00;75.80
74364;DHT22;62797;49.740;10.154;2022-11-12T05:46:21;4.00;75.90
74364;DHT22;62797;49.740;10.154;2022-11-12T05:48:46;4.10;75.70
74364;DHT22;62797;49.740;10.154;2022-11-12T05:51:12;4.00;75.10
74364;DHT22;62797;49.740;10.154;2022-11-12T05:53:38;4.10;75.20
74364;DHT22;62797;49.740;10.154;2022-11-12T05:56:04;4.00;74.70
74364;DHT22;62797;49.740;10.154;2022-11-12T05:58:30;3.90;74.60
74364;DHT22;62797;49.740;10.154;2022-11-12T06:00:57;3.90;75.80
74364;DHT22;62797;49.740;10.154;2022-11-12T06:03:23;3.90;76.00
74364;DHT22;62797;49.740;10.154;2022-11-12T06:05:49;3.90;75.40
74364;DHT22;62797;49.740;10.154;2022-11-12T06:08:14;3.90;75.50
74364;DHT22;62797;49.740;10.154;2022-11-12T06:10:40;3.90;75.50
74364;DHT22;62797;49.740;10.154;2022-11-12T06:13:06;3.90;75.80
74364;DHT22;62797;49.740;10.154;2022-11-12T06:15:32;3.90;75.70
74364;DHT22;62797;49.740;10.154;2022-11-12T06:17:57;3.90;75.20
74364;DHT22;62797;49.740;10.154;2022-11-12T06:20:23;4.00;76.20
74364;DHT22;62797;49.740;10.154;2022-11-12T06:22:49;4.00;75.60
74364;DHT22;62797;49.740;10.154;2022-11-12T06:25:16;4.00;75.60
74364;DHT22;62797;49.740;10.154;2022-11-12T06:27:42;4.00;76.60
74364;DHT22;62797;49.740;10.154;2022-11-12T06:30:08;4.10;76.60
74364;DHT22;62797;49.740;10.154;2022-11-12T06:32:34;4.10;76.50
74364;DHT22;62797;49.740;10.154;2022-11-12T06:34:59;4.10;76.60
74364;DHT22;62797;49.740;10.154;2022-11-12T06:37:25;4.10;75.90
74364;DHT22;62797;49.740;10.154;2022-11-12T06:39:50;4.10;76.10
74364;DHT22;62797;49.740;10.154;2022-11-12T06:42:16;4.20;76.50
74364;DHT22;62797;49.740;10.154;2022-11-12T06:44:42;4.10;75.40
74364;DHT22;62797;49.740;10.154;2022-11-12T06:47:09;4.10;75.50
74364;DHT22;62797;49.740;10.154;2022-11-12T06:49:35;4.10;76.70
74364;DHT22;62797;49.740;10.154;2022-11-12T06:52:00;4.10;75.90
74364;DHT22;62797;49.740;10.154;2022-11-12T06:54:26;4.20;75.90
74364;DHT22;62797;49.740;10.154;2022-11-12T06:56:52;4.20;75.50
74364;DHT22;62797;49.740;10.154;2022-11-12T06:59:17;4.10;75.20
74364;DHT22;62797;49.740;10.154;2022-11-12T07:01:43;4.00;75.60
74364;DHT22;62797;49.740;10.154;2022-11-12T07:04:08;4.10;76.60
74364;DHT22;62797;49.740;10.154;2022-11-12T07:06:35;4.10;77.10
74364;DHT22;62797;49.740;10.154;2022-11-12T07:09:01;4.20;77.70
74364;DHT22;62797;49.740;10.154;2022-11-12T07:11:27;4.20;76.40
74364;DHT22;62797;49.740;10.154;2022-11-12T07:13:52;4.30;76.60
74364;DHT22;62797;49.740;10.154;2022-11-12T07:16:18;4.40;76.50
74364;DHT22;62797;49.740;10.154;2022-11-12T07:18:45;4.40;76.50
74364;DHT22;62797;49.740;10.154;2022-11-12T07:21:16;4.40;76.80
74364;DHT22;62797;49.740;10.154;2022-11-12T07:23:43;4.40;75.90
74364;DHT22;62797;49.740;10.154;2022-11-12T07:26:21;4.40;74.80
74364;DHT22;62797;49.740;10.154;2022-11-12T07:28:48;4.30;74.40
74364;DHT22;62797;49.740;10.154;2022-11-12T07:31:15;4.30;75.30
74364;DHT22;62797;49.740;10.154;2022-11-12T07:33:42;4.20;75.10
74364;DHT22;62797;49.740;10.154;2022-11-12T07:36:10;4.20;75.50
74364;DHT22;62797;49.740;10.154;2022-11-12T07:38:37;4.10;75.00
74364;DHT22;62797;49.740;10.154;2022-11-12T07:41:15;4.10;75.30
74364;DHT22;62797;49.740;10.154;2022-11-12T07:43:43;4.10;75.30
74364;DHT22;62797;49.740;10.154;2022-11-12T07:46:18;4.10;75.70
74364;DHT22;62797;49.740;10.154;2022-11-12T07:48:45;4.20;75.80
74364;DHT22;62797;49.740;10.154;2022-11-12T07:51:15;4.20;76.30
74364;DHT22;62797;49.740;10.154;2022-11-12T07:53:42;4.20;75.80
74364;DHT22;62797;49.740;10.154;2022-11-12T07:56:10;4.30;76.00
74364;DHT22;62797;49.740;10.154;2022-11-12T07:58:36;4.30;76.10
74364;DHT22;62797;49.740;10.154;2022-11-12T08:01:10;4.40;76.00
74364;DHT22;62797;49.740;10.154;2022-11-12T08:03:42;4.40;75.70
74364;DHT22;62797;49.740;10.154;2022-11-12T08:06:07;4.40;75.80
74364;DHT22;62797;49.740;10.154;2022-11-12T08:08:33;4.30;76.70
74364;DHT22;62797;49.740;10.154;2022-11-12T08:10:59;4.40;77.40
74364;DHT22;62797;49.740;10.154;2022-11-12T08:13:24;4.40;77.60
74364;DHT22;62797;49.740;10.154;2022-11-12T08:15:50;4.50;78.70
74364;DHT22;62797;49.740;10.154;2022-11-12T08:18:16;4.60;78.10
74364;DHT22;62797;49.740;10.154;2022-11-12T08:20:42;4.70;77.70
74364;DHT22;62797;49.740;10.154;2022-11-12T08:23:08;4.70;77.60
74364;DHT22;62797;49.740;10.154;2022-11-12T08:25:34;4.80;78.10
74364;DHT22;62797;49.740;10.154;2022-11-12T08:28:00;4.90;77.00
74364;DHT22;62797;49.740;10.154;2022-11-12T08:30:26;5.00;77.10
74364;DHT22;62797;49.740;10.154;2022-11-12T08:33:04;5.10;77.80
74364;DHT22;62797;49.740;10.154;2022-11-12T08:35:30;5.20;77.10
74364;DHT22;62797;49.740;10.154;2022-11-12T08:38:01;5.20;76.50
74364;DHT22;62797;49.740;10.154;2022-11-12T08:40:30;5.30;75.90
74364;DHT22;62797;49.740;10.154;2022-11-12T08:43:03;5.30;76.00
74364;DHT22;62797;49.740;10.154;2022-11-12T08:45:31;5.30;76.30
74364;DHT22;62797;49.740;10.154;2022-11-12T08:48:06;5.40;75.60
74364;DHT22;62797;49.740;10.154;2022-11-12T08:50:33;5.40;74.90
74364;DHT22;62797;49.740;10.154;2022-11-12T08:53:11;5.40;75.20
74364;DHT22;62797;49.740;10.154;2022-11-12T08:55:37;5.50;75.40
74364;DHT22;62797;49.740;10.154;2022-11-12T08:58:03;5.50;76.00
74364;DHT22;62797;49.740;10.154;2022-11-12T09:00:30;5.60;75.50
74364;DHT22;62797;49.740;10.154;2022-11-12T09:02:58;5.60;74.60
74364;DHT22;62797;49.740;10.154;2022-11-12T09:05:24;5.60;75.60
74364;DHT22;62797;49.740;10.154;2022-11-12T09:07:59;5.60;74.40
74364;DHT22;62797;49.740;10.154;2022-11-12T09:10:25;5.60;74.40
74364;DHT22;62797;49.740;10.154;2022-11-12T09:12:52;5.60;74.30
74364;DHT22;62797;49.740;10.154;2022-11-12T09:15:18;5.70;73.60
74364;DHT22;62797;49.740;10.154;2022-11-12T09:17:44;5.80;74.60
74364;DHT22;62797;49.740;10.154;2022-11-12T09:20:09;5.70;73.40
74364;DHT22;62797;49.740;10.154;2022-11-12T09:22:35;5.70;73.90
74364;DHT22;62797;49.740;10.154;2022-11-12T09:25:01;5.70;73.30
74364;DHT22;62797;49.740;10.154;2022-11-12T09:27:26;5.60;72.50
74364;DHT22;62797;49.740;10.154;2022-11-12T09:29:52;5.50;72.30
74364;DHT22;62797;49.740;10.154;2022-11-12T09:32:18;5.50;73.20
74364;DHT22;62797;49.740;10.154;2022-11-12T09:34:44;5.50;74.10
74364;DHT22;62797;49.740;10.154;2022-11-12T09:37:09;5.60;75.20
74364;DHT22;62797;49.740;10.154;2022-11-12T09:39:35;5.80;75.90
74364;DHT22;62797;49.740;10.154;2022-11-12T09:42:06;5.90;75.80
74364;DHT22;62797;49.740;10.154;2022-11-12T09:44:34;6.10;75.20
74364;DHT22;62797;49.740;10.154;2022-11-12T09:47:13;6.00;73.10
74364;DHT22;62797;49.740;10.154;2022-11-12T09:49:50;6.00;73.40
74364;DHT22;62797;49.740;10.154;2022-11-12T09:52:25;6.00;73.00
74364;DHT22;62797;49.740;10.154;2022-11-12T09:55:12;6.00;72.60
74364;DHT22;62797;49.740;10.154;2022-11-12T09:57:39;6.00;73.10
74364;DHT22;62797;49.740;10.154;2022-11-12T10:00:31;6.00;74.40
74364;DHT22;62797;49.740;10.154;2022-11-12T10:03:05;6.10;74.80
74364;DHT22;62797;49.740;10.154;2022-11-12T10:05:37;6.10;73.90
74364;DHT22;62797;49.740;10.154;2022-11-12T10:10:56;6.10;72.60
74364;DHT22;62797;49.740;10.154;2022-11-12T10:13:31;6.20;73.10
74364;DHT22;62797;49.740;10.154;2022-11-12T10:16:15;6.20;73.10
74364;DHT22;62797;49.740;10.154;2022-11-12T10:19:09;6.20;73.20
74364;DHT22;62797;49.740;10.154;2022-11-12T10:24:36;6.40;73.90
74364;DHT22;62797;49.740;10.154;2022-11-12T10:27:12;6.40;71.90
74364;DHT22;62797;49.740;10.154;2022-11-12T10:29:51;6.50;73.10
74364;DHT22;62797;49.740;10.154;2022-11-12T10:32:19;6.50;73.50
74364;DHT22;62797;49.740;10.154;2022-11-12T10:34:45;6.50;73.80
74364;DHT22;62797;49.740;10.154;2022-11-12T10:39:53;6.70;72.80
74364;DHT22;62797;49.740;10.154;2022-11-12T10:42:20;6.70;71.10
74364;DHT22;62797;49.740;10.154;2022-11-12T10:44:47;6.70;72.60
74364;DHT22;62797;49.740;10.154;2022-11-12T10:50:03;6.90;72.40
74364;DHT22;62797;49.740;10.154;2022-11-12T10:52:29;7.00;71.70
74364;DHT22;62797;49.740;10.154;2022-11-12T10:55:20;7.00;72.00
74364;DHT22;62797;49.740;10.154;2022-11-12T10:58:06;7.10;70.40
74364;DHT22;62797;49.740;10.154;2022-11-12T11:00:32;7.10;70.10
74364;DHT22;62797;49.740;10.154;2022-11-12T11:02:59;7.00;70.10
74364;DHT22;62797;49.740;10.154;2022-11-12T11:05:30;7.00;69.50
74364;DHT22;62797;49.740;10.154;2022-11-12T11:07:56;6.90;71.50
74364;DHT22;62797;49.740;10.154;2022-11-12T11:10:28;7.10;71.60
74364;DHT22;62797;49.740;10.154;2022-11-12T11:15:58;7.10;71.30
74364;DHT22;62797;49.740;10.154;2022-11-12T11:18:24;7.10;70.30
74364;DHT22;62797;49.740;10.154;2022-11-12T11:23:29;7.10;72.10
74364;DHT22;62797;49.740;10.154;2022-11-12T11:26:08;7.20;71.10
74364;DHT22;62797;49.740;10.154;2022-11-12T11:28:47;7.00;69.70
74364;DHT22;62797;49.740;10.154;2022-11-12T11:48:59;7.40;70.50
74364;DHT22;62797;49.740;10.154;2022-11-12T11:56:58;7.30;71.10
74364;DHT22;62797;49.740;10.154;2022-11-12T12:10:15;7.70;72.40
74364;DHT22;62797;49.740;10.154;2022-11-12T12:13:07;7.70;72.20
74364;DHT22;62797;49.740;10.154;2022-11-12T12:18:31;7.90;71.50
74364;DHT22;62797;49.740;10.154;2022-11-12T12:21:08;7.90;71.80
74364;DHT22;62797;49.740;10.154;2022-11-12T12:23:49;8.00;71.20
74364;DHT22;62797;49.740;10.154;2022-11-12T12:26:54;8.00;70.40
74364;DHT22;62797;49.740;10.154;2022-11-12T12:34:37;7.80;70.30
74364;DHT22;62797;49.740;10.154;2022-11-12T12:37:32;7.80;71.60
74364;DHT22;62797;49.740;10.154;2022-11-12T12:43:19;8.00;71.00
74364;DHT22;62797;49.740;10.154;2022-11-12T12:45:43;8.00;71.00
74364;DHT22;62797;49.740;10.154;2022-11-12T12:50:44;8.00;71.40
74364;DHT22;62797;49.740;10.154;2022-11-12T12:55:59;8.10;71.70
74364;DHT22;62797;49.740;10.154;2022-11-12T13:08:54;8.20;71.80
74364;DHT22;62797;49.740;10.154;2022-11-12T13:11:55;8.20;70.90
74364;DHT22;62797;49.740;10.154;2022-11-12T13:25:04;8.00;72.30
74364;DHT22;62797;49.740;10.154;2022-11-12T13:32:42;8.10;72.40
74364;DHT22;62797;49.740;10.154;2022-11-12T13:45:46;8.30;73.60
74364;DHT22;62797;49.740;10.154;2022-11-12T13:50:49;8.50;73.30
74364;DHT22;62797;49.740;10.154;2022-11-12T13:53:20;8.50;72.50
74364;DHT22;62797;49.740;10.154;2022-11-12T13:55:48;8.60;71.90
74364;DHT22;62797;49.740;10.154;2022-11-12T13:58:27;8.50;71.60
74364;DHT22;62797;49.740;10.154;2022-11-12T14:00:54;8.50;71.40
74364;DHT22;62797;49.740;10.154;2022-11-12T14:03:21;8.50;71.70
74364;DHT22;62797;49.740;10.154;2022-11-12T14:05:49;8.50;72.10
74364;DHT22;62797;49.740;10.154;2022-11-12T14:13:41;8.40;72.30
74364;DHT22;62797;49.740;10.154;2022-11-12T14:19:11;8.50;72.30
74364;DHT22;62797;49.740;10.154;2022-11-12T14:21:42;8.50;71.70
74364;DHT22;62797;49.740;10.154;2022-11-12T14:24:09;8.40;72.20
74364;DHT22;62797;49.740;10.154;2022-11-12T14:26:39;8.50;72.80
74364;DHT22;62797;49.740;10.154;2022-11-12T14:29:06;8.50;72.50
74364;DHT22;62797;49.740;10.154;2022-11-12T14:31:32;8.50;72.60
74364;DHT22;62797;49.740;10.154;2022-11-12T14:34:18;8.50;72.40
74364;DHT22;62797;49.740;10.154;2022-11-12T14:36:45;8.50;72.60
74364;DHT22;62797;49.740;10.154;2022-11-12T14:39:11;8.40;72.50
74364;DHT22;62797;49.740;10.154;2022-11-12T14:41:37;8.40;72.50
74364;DHT22;62797;49.740;10.154;2022-11-12T14:44:14;8.40;72.70
74364;DHT22;62797;49.740;10.154;2022-11-12T14:46:46;8.40;73.00
74364;DHT22;62797;49.740;10.154;2022-11-12T14:51:53;8.40;72.80
74364;DHT22;62797;49.740;10.154;2022-11-12T14:54:45;8.40;73.40
74364;DHT22;62797;49.740;10.154;2022-11-12T14:57:25;8.40;73.00
74364;DHT22;62797;49.740;10.154;2022-11-12T14:59:51;8.40;73.80
74364;DHT22;62797;49.740;10.154;2022-11-12T15:02:26;8.30;74.10
74364;DHT22;62797;49.740;10.154;2022-11-12T15:05:01;8.40;73.60
74364;DHT22;62797;49.740;10.154;2022-11-12T15:08:26;8.40;73.20
74364;DHT22;62797;49.740;10.154;2022-11-12T15:15:26;8.30;73.50
74364;DHT22;62797;49.740;10.154;2022-11-12T15:18:03;8.30;73.50
74364;DHT22;62797;49.740;10.154;2022-11-12T15:20:30;8.30;73.20
74364;DHT22;62797;49.740;10.154;2022-11-12T15:22:56;8.30;72.70
74364;DHT22;62797;49.740;10.154;2022-11-12T15:25:29;8.30;73.10
74364;DHT22;62797;49.740;10.154;2022-11-12T15:28:10;8.30;73.40
74364;DHT22;62797;49.740;10.154;2022-11-12T15:30:36;8.20;73.60
74364;DHT22;62797;49.740;10.154;2022-11-12T15:35:38;8.20;73.80
74364;DHT22;62797;49.740;10.154;2022-11-12T15:38:18;8.10;73.90
74364;DHT22;62797;49.740;10.154;2022-11-12T15:40:52;8.20;73.90
74364;DHT22;62797;49.740;10.154;2022-11-12T15:43:22;8.10;74.60
74364;DHT22;62797;49.740;10.154;2022-11-12T15:45:50;8.10;74.40
74364;DHT22;62797;49.740;10.154;2022-11-12T15:48:16;8.00;74.20
74364;DHT22;62797;49.740;10.154;2022-11-12T15:50:42;8.10;74.20
74364;DHT22;62797;49.740;10.154;2022-11-12T15:53:07;8.00;74.10
74364;DHT22;62797;49.740;10.154;2022-11-12T15:55:33;8.00;74.30
74364;DHT22;62797;49.740;10.154;2022-11-12T15:57:59;8.00;74.60
74364;DHT22;62797;49.740;10.154;2022-11-12T16:00:33;8.00;74.60
74364;DHT22;62797;49.740;10.154;2022-11-12T16:03:11;8.00;74.60
74364;DHT22;62797;49.740;10.154;2022-11-12T16:05:37;8.00;75.50
74364;DHT22;62797;49.740;10.154;2022-11-12T16:08:03;7.90;74.80
74364;DHT22;62797;49.740;10.154;2022-11-12T16:10:29;7.90;75.30
74364;DHT22;62797;49.740;10.154;2022-11-12T16:12:58;7.90;75.70
74364;DHT22;62797;49.740;10.154;2022-11-12T16:15:25;7.90;75.70
74364;DHT22;62797;49.740;10.154;2022-11-12T16:17:52;7.90;75.80
74364;DHT22;62797;49.740;10.154;2022-11-12T16:20:19;7.80;76.00
74364;DHT22;62797;49.740;10.154;2022-11-12T16:22:46;7.80;76.10
74364;DHT22;62797;49.740;10.154;2022-11-12T16:25:12;7.80;76.20
74364;DHT22;62797;49.740;10.154;2022-11-12T16:27:38;7.80;76.40
74364;DHT22;62797;49.740;10.154;2022-11-12T16:30:05;7.80;76.50
74364;DHT22;62797;49.740;10.154;2022-11-12T16:32:31;7.80;76.10
74364;DHT22;62797;49.740;10.154;2022-11-12T16:34:57;7.70;76.70
74364;DHT22;62797;49.740;10.154;2022-11-12T16:37:22;7.70;76.50
74364;DHT22;62797;49.740;10.154;2022-11-12T16:39:48;7.70;76.70
74364;DHT22;62797;49.740;10.154;2022-11-12T16:42:13;7.70;77.20
74364;DHT22;62797;49.740;10.154;2022-11-12T16:44:39;7.70;77.00
74364;DHT22;62797;49.740;10.154;2022-11-12T16:47:05;7.70;76.80
74364;DHT22;62797;49.740;10.154;2022-11-12T16:49:30;7.70;76.60
74364;DHT22;62797;49.740;10.154;2022-11-12T16:51:56;7.70;76.70
74364;DHT22;62797;49.740;10.154;2022-11-12T16:54:23;7.70;76.70
74364;DHT22;62797;49.740;10.154;2022-11-12T16:56:48;7.70;77.10
74364;DHT22;62797;49.740;10.154;2022-11-12T16:59:14;7.70;77.00
74364;DHT22;62797;49.740;10.154;2022-11-12T17:01:39;7.70;76.80
74364;DHT22;62797;49.740;10.154;2022-11-12T17:04:05;7.60;77.00
74364;DHT22;62797;49.740;10.154;2022-11-12T17:06:36;7.60;76.40
74364;DHT22;62797;49.740;10.154;2022-11-12T17:09:10;7.60;76.60
74364;DHT22;62797;49.740;10.154;2022-11-12T17:11:36;7.70;77.10
74364;DHT22;62797;49.740;10.154;2022-11-12T17:14:02;7.60;76.70
74364;DHT22;62797;49.740;10.154;2022-11-12T17:16:29;7.60;76.50
74364;DHT22;62797;49.740;10.154;2022-11-12T17:18:57;7.60;77.70
74364;DHT22;62797;49.740;10.154;2022-11-12T17:21:23;7.60;77.10
74364;DHT22;62797;49.740;10.154;2022-11-12T17:23:49;7.60;77.00
74364;DHT22;62797;49.740;10.154;2022-11-12T17:26:17;7.60;76.40
74364;DHT22;62797;49.740;10.154;2022-11-12T17:28:43;7.60;76.70
74364;DHT22;62797;49.740;10.154;2022-11-12T17:31:14;7.50;76.30
74364;DHT22;62797;49.740;10.154;2022-11-12T17:33:42;7.50;76.20
74364;DHT22;62797;49.740;10.154;2022-11-12T17:36:11;7.50;77.00
74364;DHT22;62797;49.740;10.154;2022-11-12T17:38:37;7.40;76.50
74364;DHT22;62797;49.740;10.154;2022-11-12T17:41:04;7.40;76.50
74364;DHT22;62797;49.740;10.154;2022-11-12T17:43:30;7.40;76.40
74364;DHT22;62797;49.740;10.154;2022-11-12T17:45:56;7.40;76.60
74364;DHT22;62797;49.740;10.154;2022-11-12T17:48:22;7.30;76.50
74364;DHT22;62797;49.740;10.154;2022-11-12T17:50:49;7.40;77.00